Arcadia, CA (91006)

5:03 AM PST on January 27, 2015 (GMT -0800)
Route 666 Monrovia | Change Station
CLOSE
Current Station
Personal Weather Station
Location: Monrovia, CA
Elevation: 462 ft
Nearby Weather Stations

Elev 462 ft 34.14 °N, 118.01 °W | Updated 8 seconds ago

Overcast
Overcast
59.2 °F
Feels Like 59.2 °F
N
0.0
Wind Variable Wind from East
Gusts 0.0 mph

Today
High -- | Low -- °F
--% Chance of Precip.
Yesterday
High -- | Low -- °F
Precip. -- in
6:52 AM 5:17 PM
First Quarter, 54% visible
Pressure 30.12 in
Visibility 8.0 miles
Clouds Mostly Cloudy 10000 ft
Mostly Cloudy 12000 ft
Dew Point 58 °F
Humidity 98%
Rainfall 0.00 in
Snow Depth Not available.
UV 0 out of 12
Pollen 7.60 out of 12
Air Quality Not available.
Flu Activity Not available.
METAR KCQT 271247Z AUTO 00000KT 8SM BKN100 BKN120 15/12 A3012 RMK AO2 SLP199 T01500117 $

More Conditions Fewer Conditions

Pressure 30.12 in
Visibility 8.0 miles
Clouds Mostly Cloudy 10000 ft
Mostly Cloudy 12000 ft
Dew Point 58 °F
Humidity 98%
Rainfall 0.00 in
Snow Depth Not available.
UV 0 out of 12
Pollen 7.60 out of 12
Air Quality Not available.
Flu Activity Not available.
METAR KCQT 271247Z AUTO 00000KT 8SM BKN100 BKN120 15/12 A3012 RMK AO2 SLP199 T01500117 $

More Conditions Fewer Conditions

10-Day Weather Forecast

Almanac

Astronomy

Jan. 27, 2015 Rise Set
Actual Time
Civil Twilight
Nautical Twilight
Astronomical Twilight
Moon
Length of Visible Light
Length of Day
Tomorrow will be .
, % of the Moon is Illuminated

Today's Extremes

State Highs State Lows

Community

WunderPhotos

Upload Photos

1,790,604 photos uploaded!

WunderBlogs® & News

Nearby

Air Quality

  Air Quality AQ Index Pollutant
Not available.

Snow Depth

Station Depth Elevation

Earthquake Activity

City Distance Mag. Time & Date
Minimum magnitude displayed is 2.5.

Coastal Water Temperatures

Place Temperature

Nearby Weather Stations